Terminal Aerodrome Forecast
Issued by NWS

Current Version | Previous Version | Graphics & Text | Print | Product List | Glossary On
Versions: 1 2 3 4 5 6 7 8 9 10 11 12 13 14 15 16 17 18 19 20 21 22 23
000
FTUS41 KPBZ 300858 AAA
TAFMGW
TAF AMD
KMGW 300858Z 3009/0106 02005KT P6SM BKN022
     FM301400 10005KT P6SM BKN035
     FM302100 13005KT 5SM -RA OVC035
     FM010000 13005KT 2SM -RA BR OVC020=

USA.gov is the U.S. government's official web portal to all federal, state and local government web resources and services.